Time;durP1;ratioP1;P1;durP2;ratioP2;P2;SDS_P1;SDS_P2;PMS_P1;PMS_P2;Temp;Humidity;BMP_temperature;BMP_pressure;BME280_temperature;BME280_humidity;BME280_pressure;Samples;Min_cycle;Max_cycle;Signal;HPM_P1;HPM_P2
2022/05/26 00:01:20;;;;;;;25.80;8.57;;;14.20;99.90;;;;;;5005163;28;20400;-76
2022/05/26 00:03:47;;;;;;;33.65;8.65;;;14.10;99.90;;;;;;5005819;28;20214;-76
2022/05/26 00:06:15;;;;;;;27.73;8.55;;;14.20;99.90;;;;;;5005755;28;20050;-76
2022/05/26 00:08:41;;;;;;;24.48;7.30;;;14.30;99.90;;;;;;5004796;28;20523;-75
2022/05/26 00:11:09;;;;;;;33.97;9.48;;;14.20;99.90;;;;;;5005795;28;20328;-75
2022/05/26 00:13:37;;;;;;;29.60;9.38;;;14.10;99.90;;;;;;5004341;28;20034;-75
2022/05/26 00:16:03;;;;;;;32.80;9.13;;;14.10;99.90;;;;;;5005980;28;20042;-75
2022/05/26 00:18:29;;;;;;;36.35;9.48;;;14.10;99.90;;;;;;5002914;28;20038;-76
2022/05/26 00:20:54;;;;;;;38.42;10.10;;;14.30;99.90;;;;;;5005799;28;20396;-75
2022/05/26 00:23:20;;;;;;;32.33;7.43;;;14.10;99.90;;;;;;5002016;28;20053;-76
2022/05/26 00:25:45;;;;;;;37.03;9.27;;;14.10;99.90;;;;;;5007233;28;20069;-74
2022/05/26 00:28:11;;;;;;;36.17;9.00;;;14.20;99.90;;;;;;5001207;28;20073;-74
2022/05/26 00:30:37;;;;;;;32.95;8.27;;;14.10;99.90;;;;;;5006409;28;20042;-74
2022/05/26 00:33:05;;;;;;;35.05;9.07;;;14.10;99.90;;;;;;5002915;28;20050;-77
2022/05/26 00:35:34;;;;;;;43.63;9.23;;;14.10;99.90;;;;;;5006483;28;20511;-74
2022/05/26 00:38:04;;;;;;;28.38;8.30;;;14.20;99.90;;;;;;5001018;28;20046;-74
2022/05/26 00:40:30;;;;;;;36.35;10.20;;;14.00;99.90;;;;;;4992957;28;20041;-75
2022/05/26 00:42:56;;;;;;;38.47;8.30;;;14.10;99.90;;;;;;5002477;28;20045;-75
2022/05/26 00:45:22;;;;;;;35.08;9.18;;;14.10;99.90;;;;;;5005746;28;20064;-75
2022/05/26 00:47:49;;;;;;;29.00;7.88;;;14.00;99.90;;;;;;5003333;28;20128;-76
2022/05/26 00:50:18;;;;;;;32.55;8.77;;;14.00;99.90;;;;;;5006466;28;20038;-74
2022/05/26 00:52:50;;;;;;;33.60;9.20;;;14.20;99.90;;;;;;5004241;28;20042;-73
2022/05/26 00:55:26;;;;;;;38.20;9.80;;;14.10;99.90;;;;;;4985551;28;20105;-75
2022/05/26 00:58:09;;;;;;;38.75;10.85;;;14.00;99.90;;;;;;5002765;28;20795;-76
2022/05/26 01:00:37;;;;;;;36.45;9.90;;;14.00;99.90;;;;;;5002476;28;20161;-74
2022/05/26 01:03:18;;;;;;;48.92;11.90;;;14.10;99.90;;;;;;5002288;28;20810;-75
2022/05/26 01:06:18;;;;;;;39.13;12.02;;;14.00;99.90;;;;;;5003689;28;20038;-75
2022/05/26 01:08:55;;;;;;;41.05;7.88;;;14.00;99.90;;;;;;5004283;28;20049;-75
2022/05/26 01:11:22;;;;;;;37.42;10.20;;;14.10;99.90;;;;;;5005088;28;20851;-76
2022/05/26 01:13:53;;;;;;;40.47;9.68;;;14.10;99.90;;;;;;5002670;28;20080;-75
2022/05/26 01:16:27;;;;;;;43.35;9.25;;;13.90;99.90;;;;;;5003302;28;20485;-75
2022/05/26 01:19:16;;;;;;;35.70;10.27;;;14.00;99.90;;;;;;5000007;28;20053;-74
2022/05/26 01:21:59;;;;;;;31.40;7.20;;;14.00;99.90;;;;;;5005198;28;20100;-74
2022/05/26 01:24:37;;;;;;;38.65;10.40;;;14.00;99.90;;;;;;5002865;28;20428;-76
2022/05/26 01:27:27;;;;;;;35.67;9.32;;;14.00;99.90;;;;;;5004386;28;20497;-74
2022/05/26 01:30:11;;;;;;;;;;;14.00;99.90;;;;;;4987092;28;20056;-76
2022/05/26 01:33:01;;;;;;;44.70;9.13;;;13.90;99.90;;;;;;5001699;28;20059;-76
2022/05/26 01:35:34;;;;;;;39.88;8.70;;;13.90;99.90;;;;;;5003530;28;20053;-74
2022/05/26 01:38:24;;;;;;;41.55;8.95;;;13.80;99.90;;;;;;5000021;28;20064;-76
2022/05/26 01:41:13;;;;;;;35.90;11.73;;;13.80;99.90;;;;;;5003434;28;20107;-75
2022/05/26 01:43:54;;;;;;;33.20;9.07;;;13.90;99.90;;;;;;4982690;28;20053;-76
2022/05/26 01:46:32;;;;;;;31.23;8.50;;;13.80;99.90;;;;;;5001702;28;20046;-75
2022/05/26 01:48:57;;;;;;;38.17;8.75;;;13.90;99.90;;;;;;5001587;28;20499;-75
2022/05/26 01:51:38;;;;;;;38.50;9.50;;;13.80;99.90;;;;;;4999143;28;20083;-76
2022/05/26 01:54:23;;;;;;;40.38;11.30;;;13.80;99.90;;;;;;4988065;28;20042;-76
2022/05/26 01:57:00;;;;;;;41.55;10.25;;;13.70;99.90;;;;;;4986639;28;20045;-76
2022/05/26 01:59:37;;;;;;;46.45;11.07;;;13.80;99.90;;;;;;5004810;28;20404;-75
2022/05/26 02:02:07;;;;;;;40.47;11.88;;;13.70;99.90;;;;;;5007715;28;20041;-74
2022/05/26 02:05:07;;;;;;;38.85;10.50;;;13.80;99.90;;;;;;5008807;28;20116;-75
2022/05/26 02:07:40;;;;;;;44.13;11.63;;;13.80;99.90;;;;;;4992928;28;20492;-75
2022/05/26 02:10:15;;;;;;;28.73;9.48;;;13.70;99.90;;;;;;5008174;28;20584;-74
2022/05/26 02:12:46;;;;;;;40.30;9.25;;;13.70;99.90;;;;;;5007016;28;20128;-76
2022/05/26 02:15:15;;;;;;;45.40;9.63;;;13.80;99.90;;;;;;5007050;28;20050;-76
2022/05/26 02:17:47;;;;;;;32.97;8.52;;;13.70;99.90;;;;;;5006675;28;20046;-76
2022/05/26 02:20:24;;;;;;;32.30;8.55;;;13.70;99.90;;;;;;5007759;28;20080;-75
2022/05/26 02:22:58;;;;;;;30.83;8.30;;;13.70;99.90;;;;;;4990785;28;20057;-76
2022/05/26 02:25:26;;;;;;;31.55;8.90;;;13.60;99.90;;;;;;5021824;28;20056;-75
2022/05/26 02:27:54;;;;;;;39.70;9.32;;;13.70;99.90;;;;;;5008930;28;20045;-75
2022/05/26 02:30:21;;;;;;;34.85;8.18;;;13.60;99.90;;;;;;5004658;28;20088;-76
2022/05/26 02:32:50;;;;;;;28.55;8.57;;;13.70;99.90;;;;;;5008987;28;20046;-76
2022/05/26 02:35:29;;;;;;;33.50;7.60;;;13.60;99.90;;;;;;5007365;28;20042;-74
2022/05/26 02:38:15;;;;;;;25.65;7.75;;;13.60;99.90;;;;;;5003620;28;20053;-73
2022/05/26 02:40:42;;;;;;;29.02;6.90;;;13.50;99.90;;;;;;5004248;28;20079;-74
2022/05/26 02:43:21;;;;;;;30.05;6.90;;;13.60;99.90;;;;;;5005785;28;20404;-74
2022/05/26 02:46:03;;;;;;;23.77;6.90;;;13.50;99.90;;;;;;5006420;28;20468;-75
2022/05/26 02:48:29;;;;;;;21.85;5.05;;;13.50;99.90;;;;;;5007146;28;20305;-75
2022/05/26 02:50:57;;;;;;;19.85;4.80;;;13.60;99.90;;;;;;5007544;28;20042;-75
2022/05/26 02:53:51;;;;;;;17.52;4.50;;;13.60;99.90;;;;;;5005517;28;20060;-75
2022/05/26 02:56:57;;;;;;;10.50;3.13;;;13.50;99.90;;;;;;5005816;28;20054;-75
2022/05/26 03:00:00;;;;;;;12.35;3.67;;;13.40;99.90;;;;;;4977064;28;20177;-75
2022/05/26 03:02:53;;;;;;;8.38;2.58;;;13.40;99.90;;;;;;4999964;28;20401;-75
2022/05/26 03:05:38;;;;;;;11.10;2.88;;;13.40;99.90;;;;;;5007423;28;20041;-75
2022/05/26 03:08:08;;;;;;;8.30;3.35;;;13.40;99.90;;;;;;5005615;28;20133;-75
2022/05/26 03:10:34;;;;;;;8.50;1.98;;;13.40;99.90;;;;;;5002023;28;20050;-75
2022/05/26 03:13:00;;;;;;;10.65;2.70;;;13.40;99.90;;;;;;5003676;28;20077;-75
2022/05/26 03:15:27;;;;;;;8.18;2.33;;;13.40;99.90;;;;;;5006337;28;20569;-75
2022/05/26 03:17:53;;;;;;;13.63;2.92;;;13.40;99.90;;;;;;5004467;28;20069;-75
2022/05/26 03:20:19;;;;;;;10.55;2.20;;;13.30;99.90;;;;;;5006119;28;20038;-76
2022/05/26 03:22:45;;;;;;;13.85;2.28;;;13.30;99.90;;;;;;5006753;28;20541;-75
2022/05/26 03:25:11;;;;;;;14.85;2.58;;;13.30;99.90;;;;;;5003817;28;20157;-75
2022/05/26 03:27:37;;;;;;;10.98;1.70;;;13.20;99.90;;;;;;5006896;28;20054;-76
2022/05/26 03:30:03;;;;;;;16.60;2.50;;;13.20;99.90;;;;;;5005557;28;20045;-75
2022/05/26 03:32:29;;;;;;;9.32;1.45;;;13.10;99.90;;;;;;5002378;28;20608;-75
2022/05/26 03:43:09;;;;;;;9.52;1.30;;;13.00;99.90;;;;;;5004684;28;20485;-75
2022/05/26 03:45:35;;;;;;;15.82;3.58;;;13.00;99.90;;;;;;5003392;28;20409;-76
2022/05/26 03:48:02;;;;;;;11.88;2.33;;;13.00;99.90;;;;;;4995682;28;20055;-75
2022/05/26 03:50:28;;;;;;;10.05;3.53;;;13.00;99.90;;;;;;5005467;28;20900;-75
2022/05/26 03:52:54;;;;;;;9.52;1.40;;;13.00;99.90;;;;;;5004170;28;20052;-75
2022/05/26 03:55:21;;;;;;;9.07;1.73;;;12.90;99.90;;;;;;5004424;28;20049;-76
2022/05/26 03:57:46;;;;;;;12.00;3.13;;;12.90;99.90;;;;;;5006332;28;20042;-75
2022/05/26 04:00:13;;;;;;;11.05;1.98;;;12.90;99.90;;;;;;5006547;28;20045;-76
2022/05/26 04:02:39;;;;;;;8.00;2.15;;;12.90;99.90;;;;;;5004116;28;20041;-76
2022/05/26 04:05:05;;;;;;;8.50;1.75;;;13.00;99.90;;;;;;5002727;28;20053;-76
2022/05/26 04:07:31;;;;;;;6.72;2.38;;;12.90;99.90;;;;;;5000017;28;20123;-75
2022/05/26 04:09:57;;;;;;;12.45;2.92;;;12.90;99.90;;;;;;5005711;28;20049;-76
2022/05/26 04:12:22;;;;;;;6.63;1.95;;;12.90;99.90;;;;;;5000951;28;20103;-75
2022/05/26 04:14:48;;;;;;;8.63;1.80;;;13.00;99.90;;;;;;5004625;28;20046;-75
2022/05/26 04:17:14;;;;;;;9.70;2.80;;;13.00;99.90;;;;;;5001626;28;20896;-75
2022/05/26 04:19:41;;;;;;;7.18;1.33;;;13.00;99.90;;;;;;5005664;28;20472;-76
2022/05/26 04:22:18;;;;;;;10.10;2.40;;;13.10;99.90;;;;;;5003151;28;20160;-75
2022/05/26 04:24:49;;;;;;;11.32;1.52;;;13.00;99.90;;;;;;5005109;28;20037;-76
2022/05/26 04:27:17;;;;;;;5.40;1.85;;;13.00;99.90;;;;;;5005918;28;20042;-76
2022/05/26 04:29:43;;;;;;;9.60;1.27;;;13.00;99.90;;;;;;5005203;28;20049;-76
2022/05/26 04:32:09;;;;;;;8.65;1.63;;;13.10;99.90;;;;;;5003267;28;20057;-76
2022/05/26 04:34:35;;;;;;;9.80;1.35;;;13.00;99.90;;;;;;5000876;28;20038;-75
2022/05/26 04:37:01;;;;;;;7.93;1.60;;;13.10;99.90;;;;;;5003641;28;20373;-75
2022/05/26 04:39:27;;;;;;;17.45;3.38;;;13.10;99.90;;;;;;5003073;28;20045;-75
2022/05/26 04:41:52;;;;;;;11.02;1.63;;;13.30;99.90;;;;;;5001420;28;20050;-77
2022/05/26 04:44:19;;;;;;;11.93;2.28;;;13.30;99.90;;;;;;5006091;28;20050;-76
2022/05/26 04:46:45;;;;;;;10.60;2.70;;;13.20;99.90;;;;;;5007712;28;20139;-74
2022/05/26 04:49:11;;;;;;;9.68;2.08;;;13.20;99.90;;;;;;5003582;28;20042;-75
2022/05/26 04:51:39;;;;;;;9.65;2.45;;;13.20;99.90;;;;;;4985610;28;20203;-76
2022/05/26 04:54:07;;;;;;;8.18;1.40;;;13.40;99.90;;;;;;4999014;28;20092;-74
2022/05/26 04:56:33;;;;;;;5.45;0.93;;;13.40;99.90;;;;;;4990839;28;20061;-76
2022/05/26 04:58:58;;;;;;;7.13;1.75;;;13.40;99.90;;;;;;5003966;28;20420;-75
2022/05/26 05:01:24;;;;;;;7.63;1.25;;;13.50;99.90;;;;;;5005806;28;20038;-77
2022/05/26 05:03:50;;;;;;;9.32;1.40;;;13.50;99.90;;;;;;5004391;28;20080;-77
2022/05/26 05:06:17;;;;;;;5.32;1.25;;;13.50;99.90;;;;;;4989425;28;20038;-79
2022/05/26 05:08:43;;;;;;;7.72;2.30;;;13.50;99.90;;;;;;5004922;28;20042;-80
2022/05/26 05:11:10;;;;;;;7.53;2.10;;;13.60;99.90;;;;;;5007629;28;20060;-81
2022/05/26 05:13:37;;;;;;;8.43;2.00;;;13.70;99.90;;;;;;5007713;28;20073;-82
2022/05/26 05:16:06;;;;;;;10.60;2.15;;;13.60;99.90;;;;;;5011909;28;20038;-79
2022/05/26 05:18:34;;;;;;;4.95;1.65;;;13.60;99.90;;;;;;4998233;28;20046;-79
2022/05/26 05:21:06;;;;;;;7.13;1.25;;;13.70;99.90;;;;;;5004072;28;20057;-78
2022/05/26 05:23:32;;;;;;;7.30;1.45;;;13.70;99.90;;;;;;5003088;28;20042;-79
2022/05/26 05:26:00;;;;;;;9.48;2.40;;;13.70;99.90;;;;;;5003956;28;20217;-78
2022/05/26 05:28:37;;;;;;;2.50;0.95;;;13.70;99.90;;;;;;5004104;28;20420;-79
2022/05/26 05:31:26;;;;;;;8.93;1.20;;;13.80;99.90;;;;;;5002711;28;20042;-78
2022/05/26 05:34:00;;;;;;;5.93;0.95;;;13.80;99.90;;;;;;5001493;28;20064;-78
2022/05/26 05:36:29;;;;;;;4.25;1.50;;;13.80;99.90;;;;;;5003581;28;20050;-79
2022/05/26 05:38:57;;;;;;;10.70;2.35;;;13.80;99.90;;;;;;5004852;28;20064;-78
2022/05/26 05:41:23;;;;;;;5.43;1.02;;;13.90;99.90;;;;;;5003322;28;20056;-78
2022/05/26 05:43:49;;;;;;;6.13;0.95;;;13.90;99.90;;;;;;4999935;28;20058;-79
2022/05/26 05:46:15;;;;;;;9.73;1.77;;;14.00;99.90;;;;;;5001181;28;20504;-77
2022/05/26 05:48:44;;;;;;;9.48;2.08;;;13.90;99.90;;;;;;4996629;28;20425;-77
2022/05/26 05:51:11;;;;;;;7.15;0.98;;;14.00;99.90;;;;;;5002529;28;20038;-78
2022/05/26 05:53:37;;;;;;;6.57;1.52;;;14.10;99.90;;;;;;5003098;28;20054;-78
2022/05/26 05:56:03;;;;;;;5.50;0.70;;;14.10;99.90;;;;;;5002220;28;20061;-77
2022/05/26 05:58:29;;;;;;;3.85;0.90;;;14.10;99.90;;;;;;5002089;28;20049;-78
2022/05/26 06:00:54;;;;;;;10.45;2.60;;;14.10;99.90;;;;;;5003958;28;20042;-78
2022/05/26 06:03:21;;;;;;;9.77;1.35;;;14.20;99.90;;;;;;5001049;28;20396;-79
2022/05/26 06:05:47;;;;;;;4.22;0.85;;;14.20;99.90;;;;;;5002082;28;20056;-78
2022/05/26 06:08:13;;;;;;;8.48;2.08;;;14.30;99.90;;;;;;4997958;28;20053;-80
2022/05/26 06:10:39;;;;;;;5.05;1.52;;;14.40;99.90;;;;;;5000255;28;20045;-79
2022/05/26 06:13:04;;;;;;;4.38;0.93;;;14.50;99.90;;;;;;5000100;28;20121;-79
2022/05/26 06:15:32;;;;;;;11.25;1.17;;;14.60;99.90;;;;;;5004568;28;20054;-80
2022/05/26 06:17:58;;;;;;;6.55;2.17;;;14.70;99.90;;;;;;5001784;28;20046;-79
2022/05/26 06:20:23;;;;;;;5.97;1.17;;;14.70;99.90;;;;;;5002156;28;20117;-79
2022/05/26 06:22:49;;;;;;;10.57;1.73;;;14.90;99.90;;;;;;5002755;28;20065;-79
2022/05/26 06:25:18;;;;;;;3.97;1.30;;;15.20;99.90;;;;;;4981272;28;20042;-79
2022/05/26 06:30:32;;;;;;;4.97;1.00;;;15.40;99.90;;;;;;5000369;28;20080;-80
2022/05/26 06:38:39;;;;;;;3.88;0.90;;;15.10;99.90;;;;;;5001966;28;20080;-81
2022/05/26 06:43:52;;;;;;;4.67;0.90;;;15.10;99.90;;;;;;4965906;28;1062641;-83
2022/05/26 06:46:18;;;;;;;6.70;1.25;;;15.30;99.90;;;;;;5006700;28;20049;-80
2022/05/26 06:48:45;;;;;;;4.28;1.77;;;15.50;99.90;;;;;;5006477;28;20050;-82
2022/05/26 06:51:10;;;;;;;3.80;1.13;;;15.50;99.90;;;;;;5008109;28;20038;-80
2022/05/26 06:53:36;;;;;;;7.38;1.52;;;15.40;99.90;;;;;;5000188;28;20275;-82
2022/05/26 06:56:02;;;;;;;4.13;0.90;;;15.20;99.90;;;;;;5006389;28;20506;-81
2022/05/26 06:58:28;;;;;;;6.88;0.90;;;15.10;99.90;;;;;;5007077;28;20193;-78
2022/05/26 07:00:54;;;;;;;4.90;1.35;;;15.20;99.90;;;;;;5016165;28;20041;-80
2022/05/26 07:03:20;;;;;;;6.43;1.27;;;15.40;99.90;;;;;;4996188;28;20053;-79
2022/05/26 07:05:45;;;;;;;3.38;0.88;;;15.30;99.90;;;;;;5003938;28;20062;-82
2022/05/26 07:08:11;;;;;;;13.07;2.55;;;15.40;99.90;;;;;;4984570;28;20044;-81
2022/05/26 07:10:46;;;;;;;4.50;1.05;;;15.30;99.90;;;;;;5005167;28;20476;-81
2022/05/26 07:13:14;;;;;;;6.10;1.88;;;15.40;99.90;;;;;;5009321;28;20504;-81
2022/05/26 07:15:39;;;;;;;8.55;1.92;;;15.50;99.90;;;;;;5003735;28;20050;-81
2022/05/26 07:18:06;;;;;;;3.58;1.00;;;15.70;99.90;;;;;;5001433;28;20045;-81
2022/05/26 07:20:33;;;;;;;7.07;0.98;;;15.80;99.90;;;;;;4999182;28;20053;-81
2022/05/26 07:22:59;;;;;;;8.52;1.73;;;15.80;99.90;;;;;;5004655;28;20069;-81
2022/05/26 07:25:25;;;;;;;11.35;1.35;;;15.90;99.90;;;;;;5002062;28;20054;-81
2022/05/26 07:27:51;;;;;;;4.47;1.75;;;15.90;99.90;;;;;;5003277;28;20456;-81
2022/05/26 07:30:17;;;;;;;6.82;1.40;;;15.70;99.90;;;;;;5005313;28;20038;-80
2022/05/26 07:32:42;;;;;;;6.07;1.52;;;15.70;99.90;;;;;;5006404;28;20046;-81
2022/05/26 07:35:08;;;;;;;6.47;0.90;;;15.80;99.90;;;;;;5001337;28;20129;-80
2022/05/26 07:43:05;;;;;;;7.65;1.02;;;16.10;99.90;;;;;;4999634;28;20058;-80
2022/05/26 07:45:30;;;;;;;8.88;1.30;;;15.90;99.90;;;;;;4992462;28;20112;-78
2022/05/26 07:47:57;;;;;;;5.70;1.70;;;15.80;99.90;;;;;;5002148;28;20053;-78
2022/05/26 07:50:22;;;;;;;7.80;1.40;;;15.90;99.90;;;;;;4992452;28;20046;-81
2022/05/26 07:52:49;;;;;;;11.43;2.67;;;16.10;99.90;;;;;;5004236;28;20107;-78
2022/05/26 07:55:16;;;;;;;7.65;0.85;;;16.00;99.90;;;;;;5003091;28;20068;-79
2022/05/26 07:57:42;;;;;;;6.28;1.30;;;16.20;99.90;;;;;;5001184;28;20424;-78
2022/05/26 08:00:08;;;;;;;12.38;2.30;;;16.40;99.90;;;;;;5004584;28;20045;-78
2022/05/26 08:02:33;;;;;;;8.23;1.52;;;16.40;99.90;;;;;;5005489;28;20045;-80
2022/05/26 08:04:59;;;;;;;6.35;0.88;;;16.30;99.90;;;;;;5005200;28;20048;-78
2022/05/26 08:07:25;;;;;;;4.57;1.02;;;16.30;99.90;;;;;;5004822;28;20045;-81
2022/05/26 08:09:50;;;;;;;2.50;1.00;;;16.20;99.90;;;;;;5001750;28;20099;-80
2022/05/26 08:12:16;;;;;;;7.97;1.10;;;16.10;99.90;;;;;;5006148;28;20125;-78
2022/05/26 08:14:43;;;;;;;5.72;0.73;;;16.20;99.90;;;;;;5006480;28;20046;-82
2022/05/26 08:17:12;;;;;;;11.63;1.77;;;16.30;99.90;;;;;;5004028;28;20095;-81
2022/05/26 08:19:38;;;;;;;7.38;2.47;;;16.60;99.90;;;;;;5006688;28;20510;-80
2022/05/26 08:22:03;;;;;;;6.55;1.98;;;16.70;99.90;;;;;;5002052;28;20070;-81
2022/05/26 08:24:29;;;;;;;7.00;1.00;;;16.90;99.90;;;;;;4992674;28;20132;-80
2022/05/26 08:26:56;;;;;;;3.45;1.17;;;16.80;99.90;;;;;;5003352;28;20518;-78
2022/05/26 08:29:22;;;;;;;6.70;1.10;;;17.00;99.90;;;;;;5002145;28;20046;-81
2022/05/26 08:31:48;;;;;;;6.45;0.80;;;16.80;99.90;;;;;;4995559;28;20128;-83
2022/05/26 08:34:14;;;;;;;7.07;0.90;;;16.80;99.90;;;;;;5004327;28;20041;-83
2022/05/26 08:36:40;;;;;;;5.60;1.00;;;16.60;99.90;;;;;;5003819;28;20459;-84
2022/05/26 08:39:06;;;;;;;4.50;0.90;;;16.50;99.90;;;;;;5002620;28;20377;-81
2022/05/26 08:41:42;;;;;;;3.67;0.90;;;16.40;99.90;;;;;;5002966;28;20096;-79
2022/05/26 08:44:26;;;;;;;5.93;0.93;;;16.60;99.90;;;;;;5001133;28;20132;-81
2022/05/26 08:47:01;;;;;;;8.05;1.48;;;16.60;99.90;;;;;;5009246;28;20100;-83
2022/05/26 08:50:00;;;;;;;8.13;2.65;;;16.60;99.90;;;;;;5006527;28;20049;-82
2022/05/26 08:52:36;;;;;;;2.72;0.70;;;16.60;99.90;;;;;;5006655;28;20052;-82
2022/05/26 08:55:16;;;;;;;2.40;0.73;;;16.50;99.90;;;;;;5009799;28;20076;-82
2022/05/26 08:58:06;;;;;;;4.68;0.60;;;16.40;99.90;;;;;;5004318;28;20052;-81
2022/05/26 09:00:35;;;;;;;5.85;1.60;;;16.40;99.90;;;;;;5000037;28;20050;-86
2022/05/26 09:03:01;;;;;;;11.25;2.05;;;16.40;99.90;;;;;;5003959;28;20050;-82
2022/05/26 09:05:40;;;;;;;5.72;0.85;;;16.40;99.90;;;;;;5008872;28;20049;-81
2022/05/26 09:13:45;;;;;;;4.70;0.77;;;17.20;99.90;;;;;;5005714;28;20505;-84
2022/05/26 09:16:12;;;;;;;5.88;0.47;;;17.50;99.90;;;;;;5003594;28;20041;-83
2022/05/26 09:18:40;;;;;;;4.05;0.85;;;17.70;99.90;;;;;;4999616;28;20416;-86
2022/05/26 09:21:21;;;;;;;4.78;1.25;;;17.80;99.90;;;;;;4999000;28;20046;-84
2022/05/26 09:23:47;;;;;;;2.70;0.55;;;17.70;99.90;;;;;;5001940;28;20049;-82
2022/05/26 09:26:18;;;;;;;5.57;1.40;;;17.50;99.90;;;;;;5000663;28;20408;-84
2022/05/26 09:29:05;;;;;;;5.50;1.75;;;17.70;99.90;;;;;;5006056;28;20052;-85
2022/05/26 09:31:33;;;;;;;5.65;1.30;;;17.90;99.90;;;;;;5002486;28;20041;-85
2022/05/26 09:34:10;;;;;;;5.30;1.20;;;18.30;99.90;;;;;;5004725;28;20496;-84
2022/05/26 09:36:45;;;;;;;3.45;0.50;;;18.40;99.90;;;;;;4995568;28;20053;-80
2022/05/26 09:39:12;;;;;;;3.97;1.00;;;18.40;99.90;;;;;;5002169;28;20085;-82
2022/05/26 09:41:44;;;;;;;5.32;0.70;;;17.60;99.90;;;;;;5002311;28;20038;-78
2022/05/26 09:44:24;;;;;;;5.72;0.80;;;17.30;99.90;;;;;;5003698;28;20189;-83
2022/05/26 09:46:53;;;;;;;7.15;1.73;;;17.20;99.90;;;;;;4997750;28;20053;-83
2022/05/26 09:49:23;;;;;;;0.88;0.30;;;17.50;99.90;;;;;;5003584;28;20046;-83
2022/05/26 09:51:49;;;;;;;3.90;0.82;;;17.50;99.90;;;;;;5002401;28;20064;-84
2022/05/26 09:54:33;;;;;;;7.22;0.88;;;17.50;99.90;;;;;;5002129;28;20472;-83
2022/05/26 09:57:13;;;;;;;3.25;1.88;;;18.10;99.90;;;;;;5005653;28;20060;-84
2022/05/26 09:59:40;;;;;;;6.60;1.00;;;18.00;99.90;;;;;;4986855;28;20052;-83
2022/05/26 10:02:22;;;;;;;3.88;0.63;;;18.40;99.90;;;;;;5012439;28;20339;-86
2022/05/26 10:05:02;;;;;;;8.30;1.52;;;18.60;99.90;;;;;;5004791;28;20061;-84
2022/05/26 10:07:50;;;;;;;3.08;0.60;;;18.80;99.90;;;;;;4976229;28;20100;-84
2022/05/26 10:10:29;;;;;;;2.05;0.55;;;18.60;99.90;;;;;;4996446;28;20073;-84
2022/05/26 10:13:13;;;;;;;11.98;2.42;;;18.20;99.90;;;;;;5002310;28;20077;-85
2022/05/26 10:16:06;;;;;;;9.65;1.10;;;18.60;99.90;;;;;;4995659;28;20052;-82
2022/05/26 10:18:57;;;;;;;5.38;1.45;;;18.40;99.90;;;;;;4998322;28;20038;-86
2022/05/26 10:21:52;;;;;;;7.25;1.40;;;18.20;99.90;;;;;;4999914;28;20109;-87
2022/05/26 10:24:21;;;;;;;6.13;0.63;;;18.30;99.90;;;;;;5001658;28;20036;-86
2022/05/26 10:27:09;;;;;;;6.70;1.17;;;18.00;99.90;;;;;;5008284;28;20053;-80
2022/05/26 10:30:15;;;;;;;7.45;1.20;;;17.80;99.90;;;;;;5007497;28;20037;-88
2022/05/26 10:33:08;;;;;;;10.88;1.88;;;18.30;99.90;;;;;;4999225;28;20034;-86
2022/05/26 10:35:42;;;;;;;6.85;1.17;;;18.50;99.90;;;;;;5006542;28;20057;-89
2022/05/26 10:38:20;;;;;;;4.70;1.25;;;18.40;99.90;;;;;;5003666;28;20057;-86
2022/05/26 10:41:17;;;;;;;9.50;1.33;;;18.40;99.90;;;;;;5007324;28;20197;-87
2022/05/26 10:43:49;;;;;;;5.05;0.80;;;18.40;99.90;;;;;;4992638;28;20057;-92
2022/05/26 10:46:19;;;;;;;5.97;1.17;;;18.60;99.90;;;;;;4998069;28;20062;-85
2022/05/26 10:48:54;;;;;;;10.07;1.95;;;18.50;99.90;;;;;;5004467;28;20084;-85
2022/05/26 10:51:34;;;;;;;3.53;0.95;;;19.00;99.90;;;;;;5003793;28;20053;-87
2022/05/26 10:54:06;;;;;;;11.55;2.75;;;19.10;99.90;;;;;;5006957;28;20045;-81
2022/05/26 10:56:36;;;;;;;4.75;0.75;;;19.20;99.90;;;;;;5002210;28;20100;-83
2022/05/26 10:59:27;;;;;;;4.70;1.02;;;19.20;99.90;;;;;;5006038;28;20109;-82
2022/05/26 11:02:01;;;;;;;1.95;0.60;;;18.60;99.90;;;;;;5005231;28;20046;-81
2022/05/26 11:04:52;;;;;;;4.55;1.08;;;18.80;99.90;;;;;;5006095;28;20049;-82
2022/05/26 11:07:31;;;;;;;7.32;1.10;;;18.80;99.90;;;;;;5005744;28;20184;-81
2022/05/26 11:10:05;;;;;;;5.22;1.08;;;18.40;99.90;;;;;;5007173;28;20053;-82
2022/05/26 11:12:39;;;;;;;8.00;0.73;;;18.20;99.90;;;;;;5004986;28;20061;-80
2022/05/26 11:18:24;;;;;;;2.90;0.75;;;19.30;99.90;;;;;;5003199;28;20421;-81
2022/05/26 11:20:53;;;;;;;2.60;0.95;;;19.60;99.90;;;;;;5004276;28;20144;-80
2022/05/26 11:23:21;;;;;;;8.55;1.90;;;19.40;99.90;;;;;;5006535;28;20073;-81
2022/05/26 11:26:03;;;;;;;3.63;1.00;;;19.10;99.90;;;;;;5005413;28;20045;-79
2022/05/26 11:28:55;;;;;;;7.30;1.00;;;19.20;99.90;;;;;;4988450;28;20050;-81
2022/05/26 11:37:35;;;;;;;4.95;1.52;;;19.70;99.90;;;;;;4917928;29;20058;-81
2022/05/26 11:40:13;;;;;;;4.03;1.60;;;19.60;99.90;;;;;;4993853;28;20057;-77
2022/05/26 11:42:53;;;;;;;7.35;2.05;;;19.20;99.90;;;;;;5007206;28;20492;-79
2022/05/26 11:45:25;;;;;;;3.50;1.05;;;19.20;99.90;;;;;;5007922;28;20046;-81
2022/05/26 11:48:01;;;;;;;3.90;1.08;;;18.90;99.90;;;;;;4989508;28;20405;-80
2022/05/26 11:50:49;;;;;;;5.63;1.58;;;18.50;99.90;;;;;;4986411;28;20053;-86
2022/05/26 11:53:27;;;;;;;9.75;2.15;;;18.40;99.90;;;;;;4987968;28;20042;-84
2022/05/26 11:55:55;;;;;;;6.97;1.42;;;19.00;99.90;;;;;;4995517;28;22047;-83
2022/05/26 11:58:42;;;;;;;7.75;1.30;;;19.50;99.90;;;;;;5007182;28;20046;-83
2022/05/26 12:01:19;;;;;;;5.35;1.55;;;19.10;99.90;;;;;;5005256;28;20046;-80
2022/05/26 12:04:04;;;;;;;6.57;2.13;;;19.40;99.90;;;;;;5005966;28;20048;-82
2022/05/26 12:06:52;;;;;;;13.60;3.03;;;19.40;99.90;;;;;;5003793;28;20412;-82
2022/05/26 12:09:39;;;;;;;3.17;1.38;;;19.20;99.90;;;;;;5005354;28;20046;-83
2022/05/26 12:12:05;;;;;;;7.22;1.42;;;18.90;99.90;;;;;;4994573;28;20045;-80
2022/05/26 12:14:31;;;;;;;6.00;1.15;;;18.70;99.90;;;;;;5006416;28;20054;-82
2022/05/26 12:17:34;;;;;;;5.80;1.70;;;18.80;99.90;;;;;;5004633;28;20501;-81
2022/05/26 12:20:11;;;;;;;6.97;1.40;;;18.80;99.90;;;;;;5005586;28;20056;-85
2022/05/26 12:22:47;;;;;;;8.40;1.83;;;18.70;99.90;;;;;;5005003;28;20050;-83
2022/05/26 12:25:41;;;;;;;6.38;1.08;;;18.70;99.90;;;;;;5006023;28;20544;-79
2022/05/26 12:28:10;;;;;;;5.82;0.93;;;18.80;99.90;;;;;;5003956;28;20563;-82
2022/05/26 12:31:04;;;;;;;7.28;1.55;;;18.80;99.90;;;;;;4987651;28;20054;-83
2022/05/26 12:33:47;;;;;;;4.80;1.50;;;18.90;99.90;;;;;;5004628;28;20045;-83
2022/05/26 12:36:44;;;;;;;5.95;0.85;;;18.80;99.90;;;;;;5003364;28;20115;-82
2022/05/26 12:39:28;;;;;;;12.07;2.55;;;18.90;99.90;;;;;;5003054;28;20053;-80
2022/05/26 12:42:46;;;;;;;6.10;1.10;;;18.80;99.90;;;;;;4992047;28;20044;-82
2022/05/26 12:45:30;;;;;;;6.78;1.55;;;18.70;99.90;;;;;;4967534;28;20404;-82
2022/05/26 12:48:20;;;;;;;2.70;0.70;;;18.80;99.90;;;;;;5005303;28;20046;-82
2022/05/26 12:50:46;;;;;;;6.45;1.02;;;18.60;99.90;;;;;;5004328;28;20037;-81
2022/05/26 12:53:19;;;;;;;10.27;2.50;;;18.30;99.90;;;;;;5003540;28;20390;-81
2022/05/26 12:56:05;;;;;;;4.05;1.08;;;18.50;99.90;;;;;;5005486;28;20497;-82
2022/05/26 12:58:31;;;;;;;7.10;1.63;;;18.50;99.90;;;;;;5001730;28;20053;-81
2022/05/26 13:00:56;;;;;;;7.45;1.48;;;18.50;99.90;;;;;;5005876;28;20448;-81
2022/05/26 13:03:35;;;;;;;3.72;0.98;;;18.30;99.90;;;;;;5003320;28;20827;-83
2022/05/26 13:06:11;;;;;;;10.43;1.67;;;18.40;99.90;;;;;;5004823;28;20042;-76
2022/05/26 13:09:02;;;;;;;8.15;1.80;;;18.50;99.90;;;;;;5000851;28;20064;-81
2022/05/26 13:11:48;;;;;;;13.05;2.28;;;18.60;99.90;;;;;;4984268;28;20054;-81
2022/05/26 13:14:36;;;;;;;13.48;2.10;;;18.30;99.90;;;;;;5004783;28;20088;-81
2022/05/26 13:17:03;;;;;;;9.93;1.60;;;18.10;99.90;;;;;;4998250;28;20054;-79
2022/05/26 13:19:30;;;;;;;5.18;1.63;;;18.20;99.90;;;;;;5003065;28;20041;-79
2022/05/26 13:21:57;;;;;;;6.28;2.10;;;18.20;99.90;;;;;;5000724;28;20048;-81
2022/05/26 13:24:31;;;;;;;8.57;2.13;;;17.90;99.90;;;;;;5005492;28;20054;-81
2022/05/26 13:27:00;;;;;;;7.50;1.98;;;17.80;99.90;;;;;;5004543;28;20046;-82
2022/05/26 13:29:28;;;;;;;7.55;2.30;;;18.00;99.90;;;;;;5005341;28;20378;-82
2022/05/26 13:34:46;;;;;;;8.88;2.53;;;17.80;99.90;;;;;;4991308;28;20409;-82
2022/05/26 13:37:23;;;;;;;3.97;1.35;;;18.00;99.90;;;;;;5001292;28;20152;-82
2022/05/26 13:40:15;;;;;;;5.05;1.55;;;18.30;99.90;;;;;;5004263;28;20405;-80
2022/05/26 13:42:44;;;;;;;4.40;2.25;;;18.40;99.90;;;;;;5004234;28;20137;-80
2022/05/26 13:45:21;;;;;;;7.38;1.45;;;18.10;99.90;;;;;;5005292;28;20382;-79
2022/05/26 13:47:47;;;;;;;14.00;2.53;;;18.10;99.90;;;;;;5004272;28;20053;-77
2022/05/26 13:50:12;;;;;;;7.07;1.02;;;18.20;99.90;;;;;;5001832;28;20069;-81
2022/05/26 13:52:40;;;;;;;8.45;1.48;;;18.00;99.90;;;;;;5003701;28;20287;-75
2022/05/26 13:55:16;;;;;;;7.68;1.50;;;18.20;99.90;;;;;;5004833;28;20050;-79